Time;durP1;ratioP1;P1;durP2;ratioP2;P2;SDS_P1;SDS_P2;PMS_P1;PMS_P2;Temp;Humidity;BMP_temperature;BMP_pressure;BME280_temperature;BME280_humidity;BME280_pressure;Samples;Min_cycle;Max_cycle;Signal;HPM_P1;HPM_P2
2022/07/18 00:00:30;;;;;;;;;;;25.60;41.60;;;;;;2100244;28;891;-77
2022/07/18 00:01:31;;;;;;;;;;;25.60;41.60;;;;;;2100233;28;1297;-77
2022/07/18 00:02:31;;;;;;;;;;;25.60;41.60;;;;;;2092018;28;1309;-77
2022/07/18 00:03:32;;;;;;;;;;;25.60;41.60;;;;;;2100343;28;869;-77
2022/07/18 00:04:32;;;;;;;;;;;25.50;41.70;;;;;;2100181;28;1355;-77
2022/07/18 00:05:32;;;;;;;;;;;25.60;41.60;;;;;;2091860;28;1272;-77
2022/07/18 00:06:33;;;;;;;;;;;25.60;41.50;;;;;;2091767;28;1953;-77
2022/07/18 00:07:33;;;;;;;;;;;25.60;41.60;;;;;;2091932;28;1385;-77
2022/07/18 00:08:33;;;;;;;;;;;25.60;41.60;;;;;;2092229;28;1234;-77
2022/07/18 00:09:34;;;;;;;;;;;25.60;41.60;;;;;;2100105;28;1240;-77
2022/07/18 00:10:34;;;;;;;;;;;25.60;41.60;;;;;;2100168;28;846;-77
2022/07/18 00:11:34;;;;;;;;;;;25.60;41.70;;;;;;2100062;28;1162;-77
2022/07/18 00:12:35;;;;;;;;;;;25.60;41.40;;;;;;2091862;28;1408;-77
2022/07/18 00:13:35;;;;;;;;;;;25.60;41.60;;;;;;2100295;28;909;-77
2022/07/18 00:14:36;;;;;;;;;;;25.60;41.70;;;;;;2100654;28;1185;-77
2022/07/18 00:15:36;;;;;;;;;;;25.60;41.60;;;;;;2100675;28;810;-77
2022/07/18 00:16:37;;;;;;;;;;;25.60;41.60;;;;;;2100787;28;1058;-77
2022/07/18 00:17:37;;;;;;;;;;;25.60;41.70;;;;;;2099936;28;1213;-77
2022/07/18 00:18:37;;;;;;;;;;;25.60;41.70;;;;;;2091875;28;1235;-77
2022/07/18 00:19:38;;;;;;;;;;;25.60;41.70;;;;;;2100163;28;1090;-77
2022/07/18 00:20:38;;;;;;;;;;;25.60;41.70;;;;;;2099971;28;1183;-77
2022/07/18 00:21:38;;;;;;;;;;;25.60;41.60;;;;;;2091639;28;1289;-77
2022/07/18 00:22:39;;;;;;;;;;;25.60;41.60;;;;;;2091670;28;1176;-77
2022/07/18 00:23:39;;;;;;;;;;;25.60;41.60;;;;;;2091854;28;1230;-77
2022/07/18 00:24:40;;;;;;;;;;;25.60;41.60;;;;;;2100009;28;1177;-77
2022/07/18 00:25:40;;;;;;;;;;;25.60;41.60;;;;;;2100739;28;856;-77
2022/07/18 00:26:42;;;;;;;;;;;25.60;41.60;;;;;;2099937;28;1898;-77
2022/07/18 00:27:42;;;;;;;;;;;25.50;41.70;;;;;;2100083;28;909;-77
2022/07/18 00:28:43;;;;;;;;;;;25.60;41.60;;;;;;2100634;28;865;-77
2022/07/18 00:29:43;;;;;;;;;;;25.60;41.70;;;;;;2099971;28;1418;-77
2022/07/18 00:30:43;;;;;;;;;;;25.50;41.70;;;;;;2091767;28;1221;-77
2022/07/18 00:31:44;;;;;;;;;;;25.60;41.70;;;;;;2099958;28;1248;-77
2022/07/18 00:32:44;;;;;;;;;;;25.60;41.60;;;;;;2091594;28;1176;-77
2022/07/18 00:33:45;;;;;;;;;;;25.60;41.60;;;;;;2099983;28;830;-77
2022/07/18 00:34:45;;;;;;;;;;;25.60;41.60;;;;;;2099784;28;1357;-77
2022/07/18 00:35:45;;;;;;;;;;;25.60;41.60;;;;;;2099800;28;881;-77
2022/07/18 00:36:46;;;;;;;;;;;25.60;41.60;;;;;;2099899;28;1369;-77
2022/07/18 00:37:46;;;;;;;;;;;25.50;41.50;;;;;;2091802;28;1273;-77
2022/07/18 00:38:46;;;;;;;;;;;25.60;41.70;;;;;;2099988;28;919;-77
2022/07/18 00:39:47;;;;;;;;;;;25.60;41.70;;;;;;2108164;28;1333;-77
2022/07/18 00:40:47;;;;;;;;;;;25.60;41.60;;;;;;2099775;28;1351;-77
2022/07/18 00:41:47;;;;;;;;;;;25.60;41.70;;;;;;2091519;28;1121;-77
2022/07/18 00:42:48;;;;;;;;;;;25.60;41.40;;;;;;2091668;28;1383;-77
2022/07/18 00:43:48;;;;;;;;;;;25.60;41.60;;;;;;2099985;28;885;-77
2022/07/18 00:44:48;;;;;;;;;;;25.60;41.60;;;;;;2100434;28;1268;-77
2022/07/18 00:45:49;;;;;;;;;;;25.60;41.60;;;;;;2099716;28;1272;-77
2022/07/18 00:46:49;;;;;;;;;;;25.60;41.50;;;;;;2099816;28;1970;-77
2022/07/18 00:47:51;;;;;;;;;;;25.60;41.70;;;;;;2099837;28;1216;-77
2022/07/18 00:48:51;;;;;;;;;;;25.60;41.70;;;;;;2091613;28;1230;-77
2022/07/18 00:49:52;;;;;;;;;;;25.60;41.70;;;;;;2099969;28;909;-77
2022/07/18 00:50:52;;;;;;;;;;;25.60;41.70;;;;;;2100429;28;876;-77
2022/07/18 00:51:53;;;;;;;;;;;25.60;41.60;;;;;;2099679;28;1190;-77
2022/07/18 00:52:53;;;;;;;;;;;25.60;41.70;;;;;;2091640;28;1361;-77
2022/07/18 00:53:53;;;;;;;;;;;25.60;41.50;;;;;;2099753;28;1354;-77
2022/07/18 00:54:54;;;;;;;;;;;25.60;41.50;;;;;;2091501;28;1370;-77
2022/07/18 00:55:54;;;;;;;;;;;25.60;41.60;;;;;;2099690;28;1381;-77
2022/07/18 00:56:55;;;;;;;;;;;25.60;41.40;;;;;;2099753;28;822;-77
2022/07/18 00:57:55;;;;;;;;;;;25.60;41.60;;;;;;2099725;28;1255;-77
2022/07/18 00:58:55;;;;;;;;;;;25.60;41.50;;;;;;2099807;28;1263;-77
2022/07/18 01:02:33;;;;;;;;;;;25.60;41.60;;;;;;2100406;28;628;-77
2022/07/18 01:03:34;;;;;;;;;;;25.60;41.50;;;;;;2099584;28;1311;-77
2022/07/18 01:04:34;;;;;;;;;;;25.60;41.60;;;;;;2099640;28;1208;-77
2022/07/18 01:05:35;;;;;;;;;;;25.60;41.60;;;;;;2099596;28;1271;-77
2022/07/18 01:06:35;;;;;;;;;;;25.60;41.60;;;;;;2099663;28;1965;-77
2022/07/18 01:07:35;;;;;;;;;;;25.60;41.60;;;;;;2100278;28;829;-77
2022/07/18 01:08:37;;;;;;;;;;;25.60;41.20;;;;;;2099524;28;1205;-77
2022/07/18 01:09:37;;;;;;;;;;;25.60;41.40;;;;;;2099732;28;805;-77
2022/07/18 01:10:38;;;;;;;;;;;25.60;41.50;;;;;;2100291;28;878;-77
2022/07/18 01:11:38;;;;;;;;;;;25.60;41.60;;;;;;2100333;28;947;-77
2022/07/18 01:12:39;;;;;;;;;;;25.60;41.70;;;;;;2100353;28;889;-77
2022/07/18 01:13:39;;;;;;;;;;;25.50;41.60;;;;;;2100249;28;980;-77
2022/07/18 01:14:41;;;;;;;;;;;25.60;41.60;;;;;;2099448;28;1234;-77
2022/07/18 01:15:41;;;;;;;;;;;25.60;41.50;;;;;;2099595;28;932;-77
2022/07/18 01:16:42;;;;;;;;;;;25.50;41.50;;;;;;2100139;28;906;-77
2022/07/18 01:17:42;;;;;;;;;;;25.60;41.50;;;;;;2100266;28;880;-77
2022/07/18 01:18:43;;;;;;;;;;;25.60;41.50;;;;;;2100312;28;1000;-77
2022/07/18 01:19:43;;;;;;;;;;;25.60;41.00;;;;;;2099632;28;1415;-77
2022/07/18 01:20:43;;;;;;;;;;;25.60;41.50;;;;;;2099588;28;798;-77
2022/07/18 01:21:44;;;;;;;;;;;25.60;41.60;;;;;;2099547;28;1378;-77
2022/07/18 01:22:44;;;;;;;;;;;25.60;41.40;;;;;;2099588;28;846;-77
2022/07/18 01:23:44;;;;;;;;;;;25.60;41.00;;;;;;2099617;28;1249;-77
2022/07/18 01:24:45;;;;;;;;;;;25.60;41.30;;;;;;2099580;28;1255;-77
2022/07/18 01:25:45;;;;;;;;;;;25.60;41.40;;;;;;2099413;28;1239;-77
2022/07/18 01:26:46;;;;;;;;;;;25.60;41.50;;;;;;2099092;28;1965;-77
2022/07/18 01:27:46;;;;;;;;;;;25.60;41.40;;;;;;2099775;28;1377;-77
2022/07/18 01:28:46;;;;;;;;;;;25.60;41.40;;;;;;2091229;28;1399;-77
2022/07/18 01:29:47;;;;;;;;;;;25.60;41.40;;;;;;2099333;28;1313;-77
2022/07/18 01:30:48;;;;;;;;;;;25.60;41.30;;;;;;2107897;28;880;-77
2022/07/18 01:31:49;;;;;;;;;;;25.60;41.30;;;;;;2099388;28;1338;-77
2022/07/18 01:32:49;;;;;;;;;;;25.50;41.20;;;;;;2099465;28;1266;-77
2022/07/18 01:33:50;;;;;;;;;;;25.60;41.20;;;;;;2099423;28;1253;-77
2022/07/18 01:34:50;;;;;;;;;;;25.60;41.20;;;;;;2099418;28;1197;-77
2022/07/18 01:35:52;;;;;;;;;;;25.60;41.00;;;;;;2100040;28;898;-77
2022/07/18 01:36:52;;;;;;;;;;;25.50;40.90;;;;;;2099336;28;1706;-77
2022/07/18 01:37:53;;;;;;;;;;;25.50;41.10;;;;;;2091114;28;1245;-77
2022/07/18 01:38:53;;;;;;;;;;;25.60;41.00;;;;;;2099311;28;1213;-77
2022/07/18 01:39:53;;;;;;;;;;;25.50;41.20;;;;;;2099464;28;829;-77
2022/07/18 01:40:55;;;;;;;;;;;25.60;41.30;;;;;;2100194;28;928;-77
2022/07/18 01:41:55;;;;;;;;;;;25.50;41.30;;;;;;2100199;28;824;-77
2022/07/18 01:42:56;;;;;;;;;;;25.60;41.30;;;;;;2100110;28;866;-77
2022/07/18 01:43:56;;;;;;;;;;;25.60;41.20;;;;;;2100026;28;967;-77
2022/07/18 01:44:57;;;;;;;;;;;25.60;41.30;;;;;;2099357;28;1295;-77
2022/07/18 01:45:57;;;;;;;;;;;25.60;41.40;;;;;;2091175;28;1245;-77
2022/07/18 01:46:57;;;;;;;;;;;25.60;41.20;;;;;;2099395;28;1989;-77
2022/07/18 01:47:58;;;;;;;;;;;25.50;40.90;;;;;;2090963;28;1395;-77
2022/07/18 01:48:58;;;;;;;;;;;25.60;41.30;;;;;;2099605;28;1046;-77
2022/07/18 01:49:58;;;;;;;;;;;25.60;41.40;;;;;;2099320;28;1132;-77
2022/07/18 01:50:59;;;;;;;;;;;25.60;41.40;;;;;;2099440;28;1099;-77
2022/07/18 01:51:59;;;;;;;;;;;25.60;41.20;;;;;;2100061;28;786;-77
2022/07/18 01:53:00;;;;;;;;;;;25.60;41.50;;;;;;2099398;28;1233;-77
2022/07/18 01:54:01;;;;;;;;;;;25.50;41.20;;;;;;2091257;28;1251;-77
2022/07/18 01:55:02;;;;;;;;;;;25.60;41.10;;;;;;2099565;28;1350;-77
2022/07/18 01:56:02;;;;;;;;;;;25.50;40.90;;;;;;2100254;28;900;-77
2022/07/18 01:57:03;;;;;;;;;;;25.50;41.10;;;;;;2100384;28;944;-77
2022/07/18 01:58:04;;;;;;;;;;;25.60;40.80;;;;;;2100371;28;915;-77
2022/07/18 01:59:04;;;;;;;;;;;25.50;40.90;;;;;;2099502;28;1558;-77
2022/07/18 02:00:04;;;;;;;;;;;25.60;40.90;;;;;;2099344;28;1031;-77
2022/07/18 02:01:05;;;;;;;;;;;25.60;41.10;;;;;;2099346;28;1346;-77
2022/07/18 02:02:05;;;;;;;;;;;25.50;40.80;;;;;;2090961;28;1399;-77
2022/07/18 02:03:05;;;;;;;;;;;25.60;41.00;;;;;;2099461;28;929;-77
2022/07/18 02:04:06;;;;;;;;;;;25.60;41.20;;;;;;2100108;28;856;-77
2022/07/18 02:05:07;;;;;;;;;;;25.60;41.20;;;;;;2099709;28;1173;-77
2022/07/18 02:06:07;;;;;;;;;;;25.50;40.80;;;;;;2099220;28;1404;-77
2022/07/18 02:07:07;;;;;;;;;;;25.50;41.20;;;;;;2090836;28;1890;-77
2022/07/18 02:08:08;;;;;;;;;;;25.60;40.90;;;;;;2099464;28;929;-77
2022/07/18 02:09:08;;;;;;;;;;;25.60;41.20;;;;;;2099312;28;1382;-78
2022/07/18 02:10:08;;;;;;;;;;;25.60;41.20;;;;;;2090971;28;1266;-77
2022/07/18 02:11:09;;;;;;;;;;;25.60;41.00;;;;;;2090989;28;1406;-77
2022/07/18 02:12:09;;;;;;;;;;;25.60;41.20;;;;;;2090957;28;1296;-77
2022/07/18 02:13:09;;;;;;;;;;;25.60;41.20;;;;;;2090893;28;1393;-78
2022/07/18 02:14:10;;;;;;;;;;;25.50;40.90;;;;;;2099157;28;1091;-77
2022/07/18 02:15:10;;;;;;;;;;;25.60;41.30;;;;;;2099172;28;1338;-78
2022/07/18 02:16:10;;;;;;;;;;;25.50;41.30;;;;;;2099501;28;952;-77
2022/07/18 02:17:11;;;;;;;;;;;25.60;41.00;;;;;;2100048;28;1078;-77
2022/07/18 02:18:11;;;;;;;;;;;25.50;41.10;;;;;;2099130;28;1269;-77
2022/07/18 02:19:12;;;;;;;;;;;25.50;41.10;;;;;;2099198;28;1059;-77
2022/07/18 02:20:12;;;;;;;;;;;25.50;41.20;;;;;;2099167;28;1264;-78
2022/07/18 02:21:13;;;;;;;;;;;25.60;41.30;;;;;;2099279;28;948;-77
2022/07/18 02:22:14;;;;;;;;;;;25.60;41.00;;;;;;2099319;28;1277;-77
2022/07/18 02:23:14;;;;;;;;;;;25.50;40.90;;;;;;2090935;28;1352;-77
2022/07/18 02:24:16;;;;;;;;;;;25.60;41.10;;;;;;2099265;28;927;-77
2022/07/18 02:25:16;;;;;;;;;;;25.60;41.30;;;;;;2099719;28;1209;-77
2022/07/18 02:26:16;;;;;;;;;;;25.60;41.20;;;;;;2099763;28;868;-77
2022/07/18 02:27:17;;;;;;;;;;;25.50;41.20;;;;;;2099081;28;1952;-77
2022/07/18 02:28:17;;;;;;;;;;;25.60;41.30;;;;;;2090881;28;1289;-77
2022/07/18 02:29:17;;;;;;;;;;;25.60;41.20;;;;;;2099196;28;961;-77
2022/07/18 02:30:18;;;;;;;;;;;25.50;41.30;;;;;;2099117;28;1634;-77
2022/07/18 02:31:18;;;;;;;;;;;25.60;41.30;;;;;;2099278;28;921;-78
2022/07/18 02:32:19;;;;;;;;;;;25.60;41.10;;;;;;2099119;28;1233;-77
2022/07/18 02:33:19;;;;;;;;;;;25.60;41.50;;;;;;2099261;28;868;-77
2022/07/18 02:34:19;;;;;;;;;;;25.50;41.10;;;;;;2107464;28;1217;-77
2022/07/18 02:35:20;;;;;;;;;;;25.50;41.40;;;;;;2099020;28;1287;-77
2022/07/18 02:36:20;;;;;;;;;;;25.50;41.20;;;;;;2099206;28;1059;-77
2022/07/18 02:37:20;;;;;;;;;;;25.50;40.90;;;;;;2099142;28;1251;-77
2022/07/18 02:38:21;;;;;;;;;;;25.60;41.00;;;;;;2091206;28;1193;-77
2022/07/18 02:39:21;;;;;;;;;;;25.60;41.20;;;;;;2101055;28;884;-77
2022/07/18 02:40:22;;;;;;;;;;;25.50;41.40;;;;;;2101522;28;877;-77
2022/07/18 02:41:22;;;;;;;;;;;25.50;41.20;;;;;;2100989;28;1249;-77
2022/07/18 02:42:22;;;;;;;;;;;25.50;40.90;;;;;;2100954;28;889;-77
2022/07/18 02:43:23;;;;;;;;;;;25.50;41.10;;;;;;2100759;28;1186;-77
2022/07/18 02:44:23;;;;;;;;;;;25.60;40.90;;;;;;2092475;28;1160;-77
2022/07/18 02:45:23;;;;;;;;;;;25.50;41.00;;;;;;2092433;28;1237;-77
2022/07/18 02:46:24;;;;;;;;;;;25.50;41.30;;;;;;2100661;28;1104;-77
2022/07/18 02:47:24;;;;;;;;;;;25.50;41.00;;;;;;2100860;28;1898;-77
2022/07/18 02:48:25;;;;;;;;;;;25.50;41.00;;;;;;2092476;28;1189;-77
2022/07/18 02:49:28;;;;;;;;;;;25.60;40.90;;;;;;2100893;28;875;-77
2022/07/18 02:50:28;;;;;;;;;;;25.50;41.30;;;;;;2101464;28;925;-77
2022/07/18 02:51:28;;;;;;;;;;;25.50;41.20;;;;;;2101394;28;858;-77
2022/07/18 02:52:29;;;;;;;;;;;25.60;40.90;;;;;;2101423;28;953;-77
2022/07/18 02:53:29;;;;;;;;;;;25.50;41.20;;;;;;2101302;28;826;-77
2022/07/18 02:54:30;;;;;;;;;;;25.50;41.30;;;;;;2101245;28;846;-77
2022/07/18 02:55:30;;;;;;;;;;;25.50;40.70;;;;;;2100504;28;1280;-77
2022/07/18 02:56:30;;;;;;;;;;;25.50;41.00;;;;;;2100754;28;1039;-77
2022/07/18 02:57:31;;;;;;;;;;;25.50;41.20;;;;;;2101335;28;857;-77
2022/07/18 02:58:32;;;;;;;;;;;25.60;41.10;;;;;;2100747;28;1670;-77
2022/07/18 02:59:32;;;;;;;;;;;25.50;41.20;;;;;;2092391;28;1254;-77
2022/07/18 03:00:33;;;;;;;;;;;25.50;41.30;;;;;;2092487;28;1214;-77
2022/07/18 03:01:34;;;;;;;;;;;25.50;41.30;;;;;;2100708;28;1071;-77
2022/07/18 03:02:34;;;;;;;;;;;25.50;41.10;;;;;;2101398;28;920;-77
2022/07/18 03:03:35;;;;;;;;;;;25.60;41.30;;;;;;2101266;28;1072;-77
2022/07/18 03:04:35;;;;;;;;;;;25.50;41.30;;;;;;2101350;28;1252;-77
2022/07/18 03:05:35;;;;;;;;;;;25.60;41.20;;;;;;2101230;28;1067;-77
2022/07/18 03:06:36;;;;;;;;;;;25.50;41.10;;;;;;2100434;28;1901;-77
2022/07/18 03:07:36;;;;;;;;;;;25.60;41.20;;;;;;2100692;28;865;-77
2022/07/18 03:08:37;;;;;;;;;;;25.50;41.40;;;;;;2100482;28;1208;-77
2022/07/18 03:09:37;;;;;;;;;;;25.50;41.20;;;;;;2100659;28;822;-77
2022/07/18 03:10:37;;;;;;;;;;;25.50;41.20;;;;;;2100351;28;1378;-77
2022/07/18 03:11:38;;;;;;;;;;;25.50;41.10;;;;;;2092210;28;1286;-77
2022/07/18 03:12:38;;;;;;;;;;;25.50;41.20;;;;;;2100545;28;1098;-77
2022/07/18 03:13:38;;;;;;;;;;;25.50;41.20;;;;;;2108876;28;1499;-77
2022/07/18 03:14:39;;;;;;;;;;;25.50;41.10;;;;;;2100433;28;1312;-77
2022/07/18 03:15:39;;;;;;;;;;;25.50;41.30;;;;;;2092231;28;1277;-77
2022/07/18 03:16:39;;;;;;;;;;;25.50;41.30;;;;;;2100676;28;837;-77
2022/07/18 03:17:40;;;;;;;;;;;25.50;41.10;;;;;;2101244;28;935;-77
2022/07/18 03:18:40;;;;;;;;;;;25.50;41.40;;;;;;2101056;28;1071;-77
2022/07/18 03:19:40;;;;;;;;;;;25.50;41.40;;;;;;2100438;28;1234;-77
2022/07/18 03:20:41;;;;;;;;;;;25.50;41.20;;;;;;2100545;28;967;-77
2022/07/18 03:21:42;;;;;;;;;;;25.50;41.30;;;;;;2101276;28;801;-77
2022/07/18 03:22:42;;;;;;;;;;;25.50;41.20;;;;;;2100370;28;1656;-77
2022/07/18 03:23:42;;;;;;;;;;;25.50;41.20;;;;;;2092124;28;1292;-77
2022/07/18 03:24:43;;;;;;;;;;;25.60;41.30;;;;;;2100546;28;1174;-77
2022/07/18 03:25:43;;;;;;;;;;;25.50;41.30;;;;;;2101181;28;1085;-77
2022/07/18 03:26:43;;;;;;;;;;;25.50;41.00;;;;;;2100288;28;1907;-77
2022/07/18 03:27:44;;;;;;;;;;;25.50;41.30;;;;;;2092148;28;1233;-77
2022/07/18 03:28:44;;;;;;;;;;;25.50;41.40;;;;;;2100550;28;940;-77
2022/07/18 03:29:45;;;;;;;;;;;25.50;41.00;;;;;;2100396;28;1176;-77
2022/07/18 03:30:45;;;;;;;;;;;25.50;41.30;;;;;;2092135;28;1371;-77
2022/07/18 03:31:45;;;;;;;;;;;25.50;41.10;;;;;;2092129;28;1207;-79
2022/07/18 03:32:46;;;;;;;;;;;25.50;41.30;;;;;;2100577;28;861;-77
2022/07/18 03:33:46;;;;;;;;;;;25.50;40.90;;;;;;2100332;28;1377;-77
2022/07/18 03:34:46;;;;;;;;;;;25.50;41.30;;;;;;2100369;28;1204;-77
2022/07/18 03:35:47;;;;;;;;;;;25.50;41.00;;;;;;2100932;28;917;-77
2022/07/18 03:36:47;;;;;;;;;;;25.50;41.10;;;;;;2100362;28;1257;-77
2022/07/18 03:37:47;;;;;;;;;;;25.50;41.00;;;;;;2092134;28;1245;-77
2022/07/18 03:38:48;;;;;;;;;;;25.50;41.20;;;;;;2100443;28;932;-77
2022/07/18 03:39:48;;;;;;;;;;;25.50;41.30;;;;;;2100220;28;1517;-77
2022/07/18 03:40:49;;;;;;;;;;;25.50;41.20;;;;;;2100480;28;924;-77
2022/07/18 03:41:51;;;;;;;;;;;25.50;41.10;;;;;;2100342;28;1365;-77
2022/07/18 03:42:51;;;;;;;;;;;25.50;41.20;;;;;;2100500;28;1355;-77
2022/07/18 03:43:52;;;;;;;;;;;25.50;41.20;;;;;;2100280;28;1304;-77
2022/07/18 03:44:52;;;;;;;;;;;25.50;41.10;;;;;;2092011;28;1391;-77
2022/07/18 03:45:52;;;;;;;;;;;25.50;41.30;;;;;;2100325;28;1036;-77
2022/07/18 03:46:53;;;;;;;;;;;25.50;41.10;;;;;;2100281;28;1957;-77
2022/07/18 03:47:55;;;;;;;;;;;25.50;41.40;;;;;;2091975;28;1194;-77
2022/07/18 03:48:55;;;;;;;;;;;25.50;41.40;;;;;;2091877;28;1244;-77
2022/07/18 03:49:55;;;;;;;;;;;25.50;40.90;;;;;;2100143;28;940;-77
2022/07/18 03:50:56;;;;;;;;;;;25.50;41.20;;;;;;2101070;28;1055;-77
2022/07/18 03:51:56;;;;;;;;;;;25.50;41.60;;;;;;2100999;28;945;-77
2022/07/18 03:52:56;;;;;;;;;;;25.50;41.50;;;;;;2100297;28;1364;-77
2022/07/18 03:53:57;;;;;;;;;;;25.50;41.40;;;;;;2092052;28;1236;-77
2022/07/18 03:55:01;;;;;;;;;;;25.50;41.40;;;;;;2100233;28;1260;-77
2022/07/18 03:56:01;;;;;;;;;;;25.50;41.40;;;;;;2100201;28;1390;-77
2022/07/18 03:57:02;;;;;;;;;;;25.50;41.60;;;;;;2091915;28;1387;-77
2022/07/18 03:58:02;;;;;;;;;;;25.50;41.40;;;;;;2100265;28;818;-77
2022/07/18 03:59:02;;;;;;;;;;;25.50;41.30;;;;;;2108607;28;1355;-77
2022/07/18 04:00:03;;;;;;;;;;;25.50;41.40;;;;;;2100314;28;1398;-77
2022/07/18 04:01:03;;;;;;;;;;;25.50;41.40;;;;;;2100314;28;955;-77
2022/07/18 04:02:05;;;;;;;;;;;25.50;41.30;;;;;;2100057;28;1352;-77
2022/07/18 04:03:05;;;;;;;;;;;25.50;41.40;;;;;;2100364;28;885;-77
2022/07/18 04:04:05;;;;;;;;;;;25.50;41.20;;;;;;2100719;28;1095;-77
2022/07/18 04:05:06;;;;;;;;;;;25.50;41.40;;;;;;2100036;28;1303;-78
2022/07/18 04:06:06;;;;;;;;;;;25.50;41.40;;;;;;2100184;28;1036;-77
2022/07/18 04:07:07;;;;;;;;;;;25.50;41.30;;;;;;2100677;28;1886;-77
2022/07/18 04:08:07;;;;;;;;;;;25.50;41.30;;;;;;2100214;28;1158;-79
2022/07/18 04:09:08;;;;;;;;;;;25.50;41.20;;;;;;2100212;28;979;-77
2022/07/18 04:10:08;;;;;;;;;;;25.50;41.50;;;;;;2100722;28;837;-77
2022/07/18 04:11:09;;;;;;;;;;;25.50;41.00;;;;;;2100065;28;1268;-77
2022/07/18 04:12:09;;;;;;;;;;;25.50;41.40;;;;;;2100295;28;871;-77
2022/07/18 04:13:10;;;;;;;;;;;25.50;41.30;;;;;;2101019;28;912;-77
2022/07/18 04:14:11;;;;;;;;;;;25.50;41.10;;;;;;2100071;28;1275;-77
2022/07/18 04:15:11;;;;;;;;;;;25.50;40.90;;;;;;2091758;28;1189;-77
2022/07/18 04:16:11;;;;;;;;;;;25.50;41.30;;;;;;2091822;28;1369;-77
2022/07/18 04:17:12;;;;;;;;;;;25.50;41.10;;;;;;2100367;28;901;-77
2022/07/18 04:18:12;;;;;;;;;;;25.50;41.40;;;;;;2100140;28;1347;-77
2022/07/18 04:19:12;;;;;;;;;;;25.50;41.20;;;;;;2100115;28;1335;-77
2022/07/18 04:20:13;;;;;;;;;;;25.50;41.40;;;;;;2108549;28;868;-77
2022/07/18 04:21:13;;;;;;;;;;;25.50;41.50;;;;;;2100054;28;1270;-77
2022/07/18 04:22:13;;;;;;;;;;;25.50;41.50;;;;;;2100000;28;1237;-77
2022/07/18 04:23:14;;;;;;;;;;;25.60;41.40;;;;;;2091780;28;1244;-77
2022/07/18 04:24:14;;;;;;;;;;;25.50;41.40;;;;;;2100150;28;932;-77
2022/07/18 04:25:15;;;;;;;;;;;25.50;41.30;;;;;;2100619;28;1169;-77
2022/07/18 04:26:15;;;;;;;;;;;25.50;41.40;;;;;;2100114;28;1237;-77
2022/07/18 04:27:16;;;;;;;;;;;25.50;41.30;;;;;;2091601;28;1894;-77
2022/07/18 04:28:16;;;;;;;;;;;25.50;41.40;;;;;;2100000;28;1338;-77
2022/07/18 04:29:16;;;;;;;;;;;25.50;41.40;;;;;;2100142;28;944;-78
2022/07/18 04:30:17;;;;;;;;;;;25.60;41.40;;;;;;2099893;28;1211;-77
2022/07/18 04:31:17;;;;;;;;;;;25.50;41.40;;;;;;2091750;28;1224;-77
2022/07/18 04:32:17;;;;;;;;;;;25.50;41.40;;;;;;2099869;28;1378;-77
2022/07/18 04:33:18;;;;;;;;;;;25.50;41.50;;;;;;2100095;28;975;-77
2022/07/18 04:34:18;;;;;;;;;;;25.50;41.40;;;;;;2099891;28;1233;-77
2022/07/18 04:35:18;;;;;;;;;;;25.50;41.40;;;;;;2091394;28;1367;-77
2022/07/18 04:36:19;;;;;;;;;;;25.50;41.50;;;;;;2099976;28;1208;-77
2022/07/18 04:37:19;;;;;;;;;;;25.60;41.50;;;;;;2100047;28;865;-77
2022/07/18 04:38:20;;;;;;;;;;;25.50;41.40;;;;;;2099968;28;1314;-77
2022/07/18 04:39:20;;;;;;;;;;;25.60;41.30;;;;;;2099888;28;920;-77
2022/07/18 04:40:20;;;;;;;;;;;25.60;41.30;;;;;;2100643;28;1039;-77
2022/07/18 04:41:24;;;;;;;;;;;25.50;41.50;;;;;;2100186;28;1223;-77
2022/07/18 04:42:25;;;;;;;;;;;25.60;41.30;;;;;;2091993;28;1256;-77
2022/07/18 04:43:25;;;;;;;;;;;25.60;41.30;;;;;;2091536;28;1208;-77
2022/07/18 04:44:25;;;;;;;;;;;25.50;41.40;;;;;;2091464;28;1352;-77
2022/07/18 04:45:26;;;;;;;;;;;25.50;41.40;;;;;;2099787;28;1271;-77
2022/07/18 04:46:26;;;;;;;;;;;25.50;41.40;;;;;;2100431;28;798;-77
2022/07/18 04:47:27;;;;;;;;;;;25.50;41.30;;;;;;2100402;28;1902;-78
2022/07/18 04:48:27;;;;;;;;;;;25.60;41.30;;;;;;2099726;28;1220;-77
2022/07/18 04:49:28;;;;;;;;;;;25.50;41.10;;;;;;2099806;28;829;-77
2022/07/18 04:50:29;;;;;;;;;;;25.50;41.30;;;;;;2099728;28;1232;-77
2022/07/18 04:51:30;;;;;;;;;;;25.50;41.30;;;;;;2091548;28;1257;-77
2022/07/18 04:52:30;;;;;;;;;;;25.60;41.30;;;;;;2091442;28;1404;-77
2022/07/18 04:53:30;;;;;;;;;;;25.50;41.10;;;;;;2091569;28;1262;-78
2022/07/18 04:54:31;;;;;;;;;;;25.60;41.30;;;;;;2091601;28;1374;-77
2022/07/18 04:55:31;;;;;;;;;;;25.60;41.30;;;;;;2099882;28;1230;-77
2022/07/18 04:56:31;;;;;;;;;;;25.60;41.30;;;;;;2100464;28;940;-77
2022/07/18 04:57:32;;;;;;;;;;;25.60;41.40;;;;;;2100307;28;1092;-77
2022/07/18 04:58:32;;;;;;;;;;;25.60;41.20;;;;;;2099807;28;1392;-77
2022/07/18 04:59:32;;;;;;;;;;;25.60;41.30;;;;;;2091534;28;1289;-77
2022/07/18 05:00:33;;;;;;;;;;;25.60;41.30;;;;;;2099697;28;932;-77
2022/07/18 05:01:35;;;;;;;;;;;25.60;41.30;;;;;;2099183;28;1234;-77
2022/07/18 05:02:35;;;;;;;;;;;25.60;41.30;;;;;;2099911;28;861;-77
2022/07/18 05:03:35;;;;;;;;;;;25.60;41.20;;;;;;2100313;28;1012;-77
2022/07/18 05:04:36;;;;;;;;;;;25.60;41.30;;;;;;2100266;28;1185;-77
2022/07/18 05:05:36;;;;;;;;;;;25.60;41.40;;;;;;2100323;28;1019;-77
2022/07/18 05:06:36;;;;;;;;;;;25.60;41.30;;;;;;2100288;28;790;-77
2022/07/18 05:07:37;;;;;;;;;;;25.60;41.30;;;;;;2099470;28;2420;-77
2022/07/18 05:08:37;;;;;;;;;;;25.60;41.30;;;;;;2091449;28;1235;-77
2022/07/18 05:09:37;;;;;;;;;;;25.50;41.30;;;;;;2099724;28;1234;-77
2022/07/18 05:10:38;;;;;;;;;;;25.60;41.40;;;;;;2099648;28;1059;-77
2022/07/18 05:11:39;;;;;;;;;;;25.60;41.40;;;;;;2100400;28;922;-77
2022/07/18 05:12:39;;;;;;;;;;;25.60;41.30;;;;;;2100455;28;841;-77
2022/07/18 05:13:40;;;;;;;;;;;25.60;41.30;;;;;;2100291;28;1078;-77
2022/07/18 05:14:40;;;;;;;;;;;25.60;41.30;;;;;;2100341;28;1283;-77
2022/07/18 05:15:41;;;;;;;;;;;25.60;41.30;;;;;;2100499;28;928;-77
2022/07/18 05:16:41;;;;;;;;;;;25.60;41.90;;;;;;2100556;28;1024;-77
2022/07/18 05:17:42;;;;;;;;;;;25.50;41.00;;;;;;2100664;28;869;-77
2022/07/18 05:18:42;;;;;;;;;;;25.40;40.90;;;;;;2100424;28;940;-77
2022/07/18 05:19:42;;;;;;;;;;;25.30;40.80;;;;;;2100272;28;817;-77
2022/07/18 05:20:43;;;;;;;;;;;25.20;41.20;;;;;;2100223;28;896;-77
2022/07/18 05:21:43;;;;;;;;;;;25.20;43.00;;;;;;2100261;28;913;-77
2022/07/18 05:22:43;;;;;;;;;;;25.00;43.70;;;;;;2100102;28;1024;-77
2022/07/18 05:23:45;;;;;;;;;;;25.00;44.00;;;;;;2100210;28;786;-77
2022/07/18 05:24:45;;;;;;;;;;;25.00;44.30;;;;;;2099345;28;1271;-78
2022/07/18 05:25:46;;;;;;;;;;;24.80;43.50;;;;;;2091237;28;1182;-77
2022/07/18 05:26:46;;;;;;;;;;;24.70;43.40;;;;;;2099635;28;1957;-77
2022/07/18 05:27:46;;;;;;;;;;;24.70;43.00;;;;;;2100312;28;885;-77
2022/07/18 05:28:47;;;;;;;;;;;24.70;43.80;;;;;;2100096;28;1035;-77
2022/07/18 05:29:47;;;;;;;;;;;24.70;44.50;;;;;;2100212;28;870;-77
2022/07/18 05:30:47;;;;;;;;;;;24.80;44.40;;;;;;2099478;28;1372;-77
2022/07/18 05:31:48;;;;;;;;;;;24.80;44.40;;;;;;2091113;28;1256;-77
2022/07/18 05:32:49;;;;;;;;;;;24.80;44.30;;;;;;2099543;28;936;-78
2022/07/18 05:33:49;;;;;;;;;;;24.90;44.20;;;;;;2099396;28;1386;-77
2022/07/18 05:34:50;;;;;;;;;;;24.90;43.90;;;;;;2091041;28;1310;-77
2022/07/18 05:35:50;;;;;;;;;;;25.00;43.50;;;;;;2090989;28;1435;-78
2022/07/18 05:36:50;;;;;;;;;;;25.10;43.30;;;;;;2099467;28;936;-77
2022/07/18 05:37:51;;;;;;;;;;;25.10;43.30;;;;;;2099944;28;1071;-77
2022/07/18 05:38:51;;;;;;;;;;;25.10;43.00;;;;;;2100114;28;810;-77
2022/07/18 05:39:51;;;;;;;;;;;25.20;42.90;;;;;;2099291;28;1238;-77
2022/07/18 05:40:52;;;;;;;;;;;25.20;42.90;;;;;;2091152;28;1262;-78
2022/07/18 05:41:52;;;;;;;;;;;25.30;43.00;;;;;;2099286;28;1264;-77
2022/07/18 05:42:53;;;;;;;;;;;25.30;42.90;;;;;;2091020;28;1288;-76
2022/07/18 05:43:53;;;;;;;;;;;25.30;42.60;;;;;;2099388;28;1274;-76
2022/07/18 05:44:53;;;;;;;;;;;25.30;42.70;;;;;;2099460;28;1260;-76
2022/07/18 05:45:54;;;;;;;;;;;25.30;42.90;;;;;;2100188;28;928;-76
2022/07/18 05:46:54;;;;;;;;;;;25.40;42.90;;;;;;2100043;28;1902;-77
2022/07/18 05:47:54;;;;;;;;;;;25.40;42.90;;;;;;2099295;28;1241;-76
2022/07/18 05:48:55;;;;;;;;;;;25.40;43.30;;;;;;2091080;28;1345;-77
2022/07/18 05:49:55;;;;;;;;;;;25.50;43.40;;;;;;2099369;28;975;-78
2022/07/18 05:50:56;;;;;;;;;;;25.60;43.10;;;;;;2100126;28;929;-77
2022/07/18 05:51:56;;;;;;;;;;;25.60;43.00;;;;;;2099233;28;1285;-77
2022/07/18 05:52:57;;;;;;;;;;;25.60;43.20;;;;;;2099243;28;1035;-77
2022/07/18 05:53:57;;;;;;;;;;;25.60;43.30;;;;;;2099211;28;1259;-76
2022/07/18 05:54:58;;;;;;;;;;;25.70;43.10;;;;;;2090890;28;1277;-76
2022/07/18 05:55:58;;;;;;;;;;;25.70;43.40;;;;;;2091080;28;1368;-76
2022/07/18 05:56:58;;;;;;;;;;;25.70;43.70;;;;;;2091015;28;1351;-76
2022/07/18 05:57:59;;;;;;;;;;;25.80;43.40;;;;;;2099376;28;821;-77
2022/07/18 05:58:59;;;;;;;;;;;25.70;43.50;;;;;;2099133;28;1372;-76
2022/07/18 05:59:59;;;;;;;;;;;25.70;43.90;;;;;;2099392;28;869;-76
2022/07/18 06:01:00;;;;;;;;;;;25.80;43.50;;;;;;2100082;28;984;-76